createdAt,value
2023-08-08T00:06:22.053Z,97697.53
2023-08-08T00:09:55.222Z,97698.47
2023-08-08T00:13:27.718Z,97699.78
2023-08-08T00:17:24.578Z,97700.94
2023-08-08T00:31:22.645Z,97706.47
2023-08-08T00:35:00.362Z,97713.69
2023-08-08T00:52:30.610Z,97701.69
2023-08-08T01:06:08.389Z,97683.47
2023-08-08T01:09:30.963Z,97693.19
2023-08-08T01:20:30.949Z,97687.13
2023-08-08T01:55:45.859Z,97658.06
2023-08-08T02:18:47.007Z,97639.53
2023-08-08T02:48:51.558Z,97640.06
2023-08-08T03:04:55.926Z,97631.94
2023-08-08T03:11:24.003Z,97640.47
2023-08-08T03:14:22.972Z,97627.69
2023-08-08T03:17:50.350Z,97634.16
2023-08-08T03:21:01.424Z,97631.75
2023-08-08T03:30:23.543Z,97624.13
2023-08-08T03:33:35.760Z,97622.97
2023-08-08T03:36:23.965Z,97627.75
2023-08-08T03:39:15.866Z,97629.47
2023-08-08T03:42:31.226Z,97630.44
2023-08-08T03:45:38.391Z,97623.50
2023-08-08T04:36:13.455Z,97657.44
2023-08-08T04:55:21.048Z,97669.28
2023-08-08T05:00:36.835Z,97670.44
2023-08-08T05:02:58.102Z,97685.22
2023-08-08T05:08:47.252Z,97680.84
2023-08-08T05:11:22.063Z,97687.53
2023-08-08T05:13:30.382Z,97680.59
2023-08-08T05:15:38.466Z,97670.53
2023-08-08T05:17:46.657Z,97668.47
2023-08-08T05:19:54.885Z,97668.63
2023-08-08T05:22:04.001Z,97670.66
2023-08-08T05:24:12.639Z,97677.94
2023-08-08T05:26:24.036Z,97666.25
2023-08-08T05:28:33.931Z,97672.72
2023-08-08T05:30:42.138Z,97668.22
2023-08-08T05:32:50.588Z,97672.97
2023-08-08T05:35:01.631Z,97676.59
2023-08-08T05:37:16.969Z,97676.31
2023-08-08T05:39:27.315Z,97674.69
2023-08-08T05:41:37.946Z,97667.25
2023-08-08T05:43:46.676Z,97682.56
2023-08-08T05:45:55.165Z,97678.13
2023-08-08T05:48:06.148Z,97692.03
2023-08-08T05:50:18.935Z,97703.19
2023-08-08T05:52:27.102Z,97721.38
2023-08-08T05:54:35.280Z,97744.63
2023-08-08T05:56:48.024Z,97751.81
2023-08-08T05:58:57.345Z,97779.50
2023-08-08T06:01:07.685Z,97789.53
2023-08-08T06:03:19.480Z,97818.19
2023-08-08T06:05:31.864Z,97817.84
2023-08-08T06:07:40.622Z,97811.91
2023-08-08T06:09:49.156Z,97812.22
2023-08-08T06:12:01.188Z,97824.03
2023-08-08T06:14:10.242Z,97825.03
2023-08-08T06:16:23.833Z,97830.50
2023-08-08T06:18:34.821Z,97829.22
2023-08-08T06:20:43.673Z,97820.50
2023-08-08T06:22:53.969Z,97816.47
2023-08-08T06:25:02.589Z,97818.47
2023-08-08T06:27:15.533Z,97811.59
2023-08-08T06:29:23.638Z,97826.91
2023-08-08T06:31:34.269Z,97813.56
2023-08-08T06:33:43.861Z,97809.53
2023-08-08T06:35:51.859Z,97812.94
2023-08-08T06:38:00.270Z,97805.91
2023-08-08T06:40:16.781Z,97811.25
2023-08-08T06:42:33.076Z,97779.47
2023-08-08T06:44:50.190Z,97779.06
2023-08-08T06:46:59.689Z,97776.00
2023-08-08T06:49:14.582Z,97780.63
2023-08-08T06:51:31.551Z,97730.69
2023-08-08T06:53:40.868Z,97727.00
2023-08-08T06:55:54.830Z,97726.16
2023-08-08T06:58:07.933Z,97715.63
2023-08-08T07:00:22.032Z,97725.13
2023-08-08T07:02:30.306Z,97727.69
2023-08-08T07:04:41.522Z,97723.94
2023-08-08T07:06:56.210Z,97716.03
2023-08-08T07:09:05.584Z,97720.50
2023-08-08T07:13:32.082Z,97717.00
2023-08-08T07:15:40.119Z,97701.75
2023-08-08T07:17:50.727Z,97708.72
2023-08-08T07:20:01.837Z,97708.06
2023-08-08T07:22:12.173Z,97705.97
2023-08-08T07:24:24.322Z,97710.28
2023-08-08T07:26:55.944Z,97706.16
2023-08-08T07:29:32.515Z,97715.28
2023-08-08T07:31:38.400Z,97705.16
2023-08-08T07:33:58.124Z,97706.75
2023-08-08T07:36:08.316Z,97696.47
2023-08-08T07:38:25.153Z,97702.25
2023-08-08T07:40:43.920Z,97703.47
2023-08-08T07:42:53.535Z,97707.63
2023-08-08T07:45:04.612Z,97691.75
2023-08-08T07:47:19.912Z,97696.31
2023-08-08T07:49:29.928Z,97695.06
2023-08-08T07:54:49.791Z,97690.91
2023-08-08T07:57:39.676Z,97681.22
2023-08-08T08:00:22.445Z,97684.19
2023-08-08T08:03:12.460Z,97673.75
2023-08-08T08:05:42.288Z,97665.16
2023-08-08T08:07:51.405Z,97663.13
2023-08-08T08:09:59.964Z,97664.28
2023-08-08T08:12:12.672Z,97657.63
2023-08-08T08:14:24.508Z,97654.41
2023-08-08T08:16:34.434Z,97656.06
2023-08-08T08:18:49.979Z,97656.63
2023-08-08T08:21:11.442Z,97657.34
2023-08-08T08:23:22.311Z,97654.84
2023-08-08T08:25:30.690Z,97649.66
2023-08-08T08:27:39.605Z,97656.50
2023-08-08T08:29:48.780Z,97654.59
2023-08-08T08:31:57.131Z,97648.34
2023-08-08T08:34:05.473Z,97650.97
2023-08-08T08:36:19.588Z,97646.69
2023-08-08T08:38:28.277Z,97649.88
2023-08-08T08:40:40.825Z,97652.13
2023-08-08T08:42:51.018Z,97655.50
2023-08-08T08:45:02.650Z,97651.22
2023-08-08T08:47:17.202Z,97642.47
2023-08-08T08:49:30.763Z,97639.94
2023-08-08T08:51:42.287Z,97648.28
2023-08-08T08:53:54.396Z,97644.34
2023-08-08T08:56:02.661Z,97646.53
2023-08-08T08:58:12.274Z,97647.78
2023-08-08T09:00:22.383Z,97639.28
2023-08-08T09:02:39.588Z,97635.78
2023-08-08T09:04:49.300Z,97637.78
2023-08-08T09:07:00.287Z,97641.31
2023-08-08T09:09:16.400Z,97641.31
2023-08-08T09:11:25.436Z,97629.72
2023-08-08T09:13:40.145Z,97628.25
2023-08-08T09:15:51.913Z,97635.97
2023-08-08T09:18:00.058Z,97638.56
2023-08-08T09:20:12.118Z,97632.91
2023-08-08T09:22:25.053Z,97639.47
2023-08-08T09:24:33.013Z,97655.56
2023-08-08T09:26:38.665Z,97638.94
2023-08-08T09:28:47.049Z,97644.34
2023-08-08T09:30:55.495Z,97645.44
2023-08-08T09:33:04.137Z,97637.31
2023-08-08T09:35:13.048Z,97639.38
2023-08-08T09:37:23.894Z,97639.41
2023-08-08T09:39:32.938Z,97638.28
2023-08-08T09:41:43.144Z,97634.91
2023-08-08T09:43:51.788Z,97627.38
2023-08-08T09:45:59.986Z,97626.31
2023-08-08T09:48:07.610Z,97626.66
2023-08-08T09:50:15.822Z,97629.91
2023-08-08T09:52:26.629Z,97625.75
2023-08-08T09:54:36.311Z,97626.38
2023-08-08T09:56:44.615Z,97625.31
2023-08-08T09:58:52.906Z,97615.53
2023-08-08T10:01:00.988Z,97624.56
2023-08-08T10:03:09.803Z,97621.94
2023-08-08T10:05:18.788Z,97615.78
2023-08-08T10:07:29.514Z,97617.50
2023-08-08T10:09:38.829Z,97612.00
2023-08-08T10:11:47.746Z,97609.13
2023-08-08T10:13:57.612Z,97602.00
2023-08-08T10:16:12.569Z,97603.94
2023-08-08T10:18:21.490Z,97605.41
2023-08-08T10:20:29.922Z,97607.63
2023-08-08T10:22:40.074Z,97613.78
2023-08-08T10:24:51.648Z,97605.25
2023-08-08T10:27:03.407Z,97601.66
2023-08-08T10:29:11.420Z,97607.03
2023-08-08T10:31:25.084Z,97598.19
2023-08-08T10:33:44.653Z,97603.22
2023-08-08T10:36:01.633Z,97612.91
2023-08-08T10:38:16.369Z,97611.53
2023-08-08T10:40:24.629Z,97607.09
2023-08-08T10:42:32.993Z,97612.28
2023-08-08T10:44:46.258Z,97601.34
2023-08-08T10:46:57.834Z,97602.97
2023-08-08T10:49:09.848Z,97584.31
2023-08-08T10:51:19.399Z,97592.78
2023-08-08T10:53:31.254Z,97585.78
2023-08-08T10:55:41.373Z,97591.16
2023-08-08T10:57:57.864Z,97592.38
2023-08-08T11:00:21.495Z,97593.63
2023-08-08T11:02:30.074Z,97582.97
2023-08-08T11:04:40.224Z,97586.13
2023-08-08T11:06:51.506Z,97594.25
2023-08-08T11:09:04.919Z,97598.31
2023-08-08T11:11:13.769Z,97590.34
2023-08-08T11:13:21.994Z,97591.03
2023-08-08T11:15:32.137Z,97580.22
2023-08-08T11:17:40.823Z,97579.47
2023-08-08T11:19:49.717Z,97578.94
2023-08-08T11:21:58.486Z,97575.84
2023-08-08T11:24:09.330Z,97588.47
2023-08-08T11:26:22.277Z,97592.88
2023-08-08T11:28:31.420Z,97579.84
2023-08-08T11:30:43.027Z,97586.41
2023-08-08T11:35:04.946Z,97576.56
2023-08-08T11:37:16.541Z,97576.88
2023-08-08T11:39:28.303Z,97573.28
2023-08-08T11:41:34.091Z,97579.13
2023-08-08T11:43:43.202Z,97580.81
2023-08-08T11:45:53.658Z,97574.03
2023-08-08T11:48:01.913Z,97566.09
2023-08-08T11:50:13.771Z,97560.84
2023-08-08T11:52:23.502Z,97564.97
2023-08-08T11:54:35.630Z,97563.59
2023-08-08T11:56:44.226Z,97564.69
2023-08-08T11:58:54.574Z,97557.38
2023-08-08T12:01:00.672Z,97577.09
2023-08-08T12:03:10.783Z,97562.13
2023-08-08T12:05:23.136Z,97555.56
2023-08-08T12:07:31.668Z,97565.41
2023-08-08T12:09:43.562Z,97576.41
2023-08-08T12:11:51.714Z,97561.88
2023-08-08T12:14:04.329Z,97565.78
2023-08-08T12:16:17.842Z,97567.66
2023-08-08T12:18:26.732Z,97553.16
2023-08-08T12:20:35.892Z,97556.63
2023-08-08T12:22:44.086Z,97553.38
2023-08-08T12:24:55.281Z,97544.69
2023-08-08T12:27:03.585Z,97551.34
2023-08-08T12:29:11.872Z,97553.28
2023-08-08T12:31:20.271Z,97555.03
2023-08-08T12:33:28.891Z,97535.47
2023-08-08T12:35:34.231Z,97548.59
2023-08-08T12:37:42.842Z,97543.44
2023-08-08T12:39:51.250Z,97550.94
2023-08-08T12:42:02.445Z,97541.22
2023-08-08T12:44:11.490Z,97546.03
2023-08-08T12:46:19.742Z,97544.47
2023-08-08T12:48:27.973Z,97550.13
2023-08-08T12:50:36.416Z,97538.59
2023-08-08T12:52:44.891Z,97543.50
2023-08-08T12:54:53.512Z,97545.88
2023-08-08T12:57:04.399Z,97532.06
2023-08-08T12:59:13.733Z,97531.78
2023-08-08T13:01:22.150Z,97530.97
2023-08-08T13:03:31.693Z,97529.56
2023-08-08T13:05:39.742Z,97528.06
2023-08-08T13:07:47.916Z,97525.34
2023-08-08T13:09:55.996Z,97518.44
2023-08-08T13:12:07.274Z,97526.09
2023-08-08T13:14:15.527Z,97518.09
2023-08-08T13:16:23.802Z,97520.56
2023-08-08T13:18:32.198Z,97521.72
2023-08-08T13:20:42.882Z,97519.19
2023-08-08T13:22:51.122Z,97513.41
2023-08-08T13:24:59.150Z,97516.69
2023-08-08T13:27:10.118Z,97515.09
2023-08-08T13:29:18.116Z,97518.97
2023-08-08T13:31:26.097Z,97515.63
2023-08-08T13:33:35.627Z,97518.75
2023-08-08T13:35:43.944Z,97530.00
2023-08-08T13:37:53.770Z,97522.38
2023-08-08T13:40:02.094Z,97525.38
2023-08-08T13:42:13.839Z,97520.63
2023-08-08T13:44:22.009Z,97521.34
2023-08-08T13:46:30.284Z,97525.13
2023-08-08T13:48:38.584Z,97526.81
2023-08-08T13:50:46.953Z,97513.91
2023-08-08T13:52:55.844Z,97516.50
2023-08-08T13:55:06.788Z,97522.78
2023-08-08T13:57:17.726Z,97522.69
2023-08-08T13:59:25.857Z,97516.47
2023-08-08T14:01:35.758Z,97518.00
2023-08-08T14:03:43.901Z,97513.91
2023-08-08T14:05:53.637Z,97517.09
2023-08-08T14:08:02.300Z,97508.00
2023-08-08T14:10:12.971Z,97507.38
2023-08-08T14:12:23.802Z,97511.47
2023-08-08T14:14:33.600Z,97515.72
2023-08-08T14:16:41.479Z,97511.41
2023-08-08T14:18:49.705Z,97514.59
2023-08-08T14:20:55.461Z,97502.16
2023-08-08T14:23:07.454Z,97517.59
2023-08-08T14:25:15.319Z,97505.56
2023-08-08T14:27:27.678Z,97507.66
2023-08-08T14:29:35.798Z,97511.03
2023-08-08T14:31:58.544Z,97512.31
2023-08-08T14:34:09.165Z,97508.22
2023-08-08T14:36:17.313Z,97513.50
2023-08-08T14:38:29.009Z,97514.84
2023-08-08T14:40:38.295Z,97509.25
2023-08-08T14:42:52.490Z,97515.66
2023-08-08T14:45:00.972Z,97527.66
2023-08-08T14:47:10.979Z,97523.28
2023-08-08T14:49:19.356Z,97519.66
2023-08-08T14:51:28.093Z,97520.44
2023-08-08T14:53:36.166Z,97526.44
2023-08-08T14:55:44.178Z,97525.94
2023-08-08T14:57:55.503Z,97519.72
2023-08-08T15:00:04.090Z,97522.94
2023-08-08T15:02:13.090Z,97525.88
2023-08-08T15:04:18.771Z,97524.53
2023-08-08T15:06:27.252Z,97521.13
2023-08-08T15:08:35.443Z,97509.59
2023-08-08T15:10:43.986Z,97508.38
2023-08-08T15:12:55.664Z,97514.72
2023-08-08T15:15:04.793Z,97518.19
2023-08-08T15:17:13.075Z,97522.94
2023-08-08T15:19:22.296Z,97514.56
2023-08-08T15:21:32.848Z,97520.44
2023-08-08T15:23:38.369Z,97515.94
2023-08-08T15:25:47.016Z,97530.34
2023-08-08T15:27:57.852Z,97524.06
2023-08-08T15:30:06.146Z,97523.34
2023-08-08T15:32:14.204Z,97526.56
2023-08-08T15:34:22.353Z,97528.63
2023-08-08T15:36:30.706Z,97533.75
2023-08-08T15:38:41.716Z,97524.97
2023-08-08T15:40:51.573Z,97536.09
2023-08-08T15:43:02.254Z,97516.31
2023-08-08T15:45:11.723Z,97536.78
2023-08-08T15:47:20.038Z,97529.69
2023-08-08T15:49:29.989Z,97526.13
2023-08-08T15:51:38.046Z,97534.31
2023-08-08T15:53:46.224Z,97528.25
2023-08-08T15:55:54.246Z,97525.31
2023-08-08T15:58:05.145Z,97524.50
2023-08-08T16:00:17.956Z,97529.41
2023-08-08T16:02:26.273Z,97522.38
2023-08-08T16:04:34.449Z,97526.22
2023-08-08T16:06:42.565Z,97520.94
2023-08-08T16:08:50.566Z,97522.25
2023-08-08T16:10:58.815Z,97522.00
2023-08-08T16:13:10.092Z,97522.69
2023-08-08T16:15:19.399Z,97529.97
2023-08-08T16:17:29.030Z,97523.69
2023-08-08T16:19:39.168Z,97517.13
2023-08-08T16:21:47.326Z,97523.41
2023-08-08T16:23:55.522Z,97519.78
2023-08-08T16:26:03.861Z,97524.16
2023-08-08T16:28:14.518Z,97520.91
2023-08-08T16:30:22.386Z,97522.56
2023-08-08T16:32:31.000Z,97522.66
2023-08-08T16:34:39.818Z,97520.16
2023-08-08T16:36:47.796Z,97513.69
2023-08-08T16:39:02.371Z,97516.69
2023-08-08T16:41:22.137Z,97527.22
2023-08-08T16:43:32.746Z,97525.69
2023-08-08T16:45:40.762Z,97530.25
2023-08-08T16:47:49.070Z,97533.69
2023-08-08T16:49:56.915Z,97527.16
2023-08-08T16:52:10.307Z,97532.47
2023-08-08T16:54:15.936Z,97543.81
2023-08-08T16:56:24.576Z,97538.09
2023-08-08T16:58:35.228Z,97540.63
2023-08-08T17:00:43.339Z,97544.31
2023-08-08T17:02:51.592Z,97527.78
2023-08-08T17:04:59.659Z,97528.09
2023-08-08T17:07:07.712Z,97520.66
2023-08-08T17:09:16.423Z,97538.88
2023-08-08T17:11:28.737Z,97533.47
2023-08-08T17:13:40.824Z,97531.97
2023-08-08T17:15:49.070Z,97544.28
2023-08-08T17:17:57.288Z,97539.91
2023-08-08T17:20:06.646Z,97546.19
2023-08-08T17:22:14.722Z,97542.28
2023-08-08T17:24:28.845Z,97547.69
2023-08-08T17:26:41.027Z,97555.78
2023-08-08T17:28:52.607Z,97547.16
2023-08-08T17:31:00.730Z,97543.31
2023-08-08T17:33:08.757Z,97547.34
2023-08-08T17:35:19.032Z,97555.41
2023-08-08T17:37:27.202Z,97544.09
2023-08-08T17:39:35.643Z,97540.88
2023-08-08T17:41:44.216Z,97540.81
2023-08-08T17:43:55.155Z,97544.00
2023-08-08T17:46:03.277Z,97543.09
2023-08-08T17:48:11.443Z,97548.22
2023-08-08T17:50:19.608Z,97545.19
2023-08-08T17:52:29.284Z,97542.44
2023-08-08T17:54:37.317Z,97538.00
2023-08-08T17:56:45.706Z,97541.16
2023-08-08T17:58:56.287Z,97543.16
2023-08-08T18:01:04.312Z,97549.03
2023-08-08T18:03:12.292Z,97536.97
2023-08-08T18:05:20.464Z,97537.63
2023-08-08T18:07:28.528Z,97544.75
2023-08-08T18:09:36.713Z,97541.16
2023-08-08T18:11:45.964Z,97538.69
2023-08-08T18:13:56.851Z,97541.84
2023-08-08T18:16:05.065Z,97539.56
2023-08-08T18:18:13.272Z,97539.44
2023-08-08T18:20:21.271Z,97527.94
2023-08-08T18:22:29.388Z,97532.25
2023-08-08T18:24:41.508Z,97525.50
2023-08-08T18:26:49.540Z,97518.59
2023-08-08T18:29:00.558Z,97523.44
2023-08-08T18:31:08.504Z,97533.16
2023-08-08T18:33:16.376Z,97527.41
2023-08-08T18:35:26.740Z,97526.06
2023-08-08T18:37:35.510Z,97521.38
2023-08-08T18:39:43.471Z,97528.84
2023-08-08T18:41:53.080Z,97520.38
2023-08-08T18:44:05.969Z,97521.03
2023-08-08T18:46:16.075Z,97515.72
2023-08-08T18:48:32.547Z,97525.19
2023-08-08T18:50:40.516Z,97529.44
2023-08-08T18:52:52.130Z,97524.81
2023-08-08T18:55:00.586Z,97529.28
2023-08-08T18:57:08.861Z,97538.97
2023-08-08T18:59:19.745Z,97531.44
2023-08-08T19:04:07.980Z,97544.31
2023-08-08T19:06:30.160Z,97545.59
2023-08-08T19:08:44.060Z,97549.63
2023-08-08T19:11:01.821Z,97546.06
2023-08-08T19:13:14.464Z,97540.13
2023-08-08T19:15:37.492Z,97537.03
2023-08-08T19:18:00.192Z,97534.78
2023-08-08T19:20:13.126Z,97536.13
2023-08-08T19:22:33.950Z,97537.38
2023-08-08T19:25:01.099Z,97532.22
2023-08-08T19:27:27.246Z,97541.13
2023-08-08T19:34:04.238Z,97540.09
2023-08-08T19:36:30.331Z,97538.31
2023-08-08T19:38:56.425Z,97546.53
2023-08-08T19:48:14.650Z,97541.63
2023-08-08T20:13:51.713Z,97549.97
2023-08-08T20:16:16.572Z,97537.75
2023-08-08T20:19:04.314Z,97550.22
2023-08-08T20:21:25.699Z,97534.59
2023-08-08T20:24:13.264Z,97542.94
2023-08-08T20:26:40.976Z,97537.56
2023-08-08T20:32:45.881Z,97529.38
2023-08-08T20:45:44.276Z,97529.22
2023-08-08T21:04:36.898Z,97526.56
2023-08-08T21:14:12.065Z,97527.38
2023-08-08T21:17:55.487Z,97518.88
2023-08-08T21:24:08.745Z,97522.91
2023-08-08T21:29:48.426Z,97503.19
2023-08-08T22:58:00.895Z,97449.09
2023-08-08T23:10:17.957Z,97451.09
2023-08-08T23:18:58.704Z,97449.41
2023-08-08T23:21:47.900Z,97446.59
2023-08-08T23:24:50.072Z,97443.88
2023-08-08T23:31:00.238Z,97449.88
2023-08-08T23:36:45.685Z,97453.91
2023-08-08T23:39:30.358Z,97448.28
2023-08-08T23:42:53.422Z,97445.75
